createdAt,value
2022-12-25T00:01:12.901Z,88.42
2022-12-25T00:03:40.272Z,87.59
2022-12-25T00:06:07.159Z,87.37
2022-12-25T00:08:34.569Z,88.23
2022-12-25T00:11:03.859Z,87.91
2022-12-25T00:13:30.825Z,88.00
2022-12-25T00:15:57.969Z,87.63
2022-12-25T00:18:24.909Z,87.25
2022-12-25T00:21:18.682Z,87.63
2022-12-25T00:23:45.797Z,87.48
2022-12-25T00:26:17.085Z,87.47
2022-12-25T00:28:43.916Z,88.03
2022-12-25T00:31:13.363Z,87.58
2022-12-25T00:33:41.818Z,88.13
2022-12-25T00:36:09.826Z,87.45
2022-12-25T00:38:38.725Z,87.16
2022-12-25T00:41:07.743Z,88.04
2022-12-25T00:43:34.794Z,87.14
2022-12-25T00:46:03.743Z,87.25
2022-12-25T00:48:31.322Z,87.13
2022-12-25T00:51:00.219Z,86.96
2022-12-25T00:53:28.024Z,86.46
2022-12-25T00:56:06.094Z,86.83
2022-12-25T00:58:34.030Z,86.53
2022-12-25T01:01:00.909Z,86.48
2022-12-25T01:03:28.217Z,86.33
2022-12-25T01:06:07.205Z,85.88
2022-12-25T01:08:37.094Z,86.31
2022-12-25T01:11:08.638Z,86.61
2022-12-25T01:13:36.663Z,85.66
2022-12-25T01:16:10.397Z,85.25
2022-12-25T01:18:38.451Z,85.64
2022-12-25T01:21:12.898Z,85.23
2022-12-25T01:23:39.699Z,85.42
2022-12-25T01:26:07.286Z,84.90
2022-12-25T01:28:34.980Z,84.94
2022-12-25T01:31:02.394Z,84.64
2022-12-25T01:33:29.423Z,85.43
2022-12-25T01:35:57.839Z,85.39
2022-12-25T01:38:24.780Z,85.13
2022-12-25T01:40:51.535Z,85.14
2022-12-25T01:43:28.887Z,85.36
2022-12-25T01:45:56.094Z,85.81
2022-12-25T01:48:26.063Z,85.25
2022-12-25T01:50:59.640Z,85.55
2022-12-25T01:53:26.843Z,85.63
2022-12-25T01:56:00.629Z,85.60
2022-12-25T01:58:27.607Z,85.51
2022-12-25T02:00:54.450Z,85.44
2022-12-25T02:03:21.954Z,85.10
2022-12-25T02:05:48.827Z,84.74
2022-12-25T02:08:17.132Z,84.90
2022-12-25T02:10:44.912Z,85.51
2022-12-25T02:13:16.743Z,84.61
2022-12-25T02:15:55.848Z,85.01
2022-12-25T02:18:41.504Z,84.87
2022-12-25T02:21:26.477Z,84.10
2022-12-25T02:24:27.448Z,84.30
2022-12-25T02:27:01.846Z,84.31
2022-12-25T02:29:39.914Z,83.94
2022-12-25T02:32:15.065Z,84.05
2022-12-25T02:34:48.440Z,84.21
2022-12-25T02:37:33.937Z,84.39
2022-12-25T02:40:09.497Z,84.17
2022-12-25T02:43:20.858Z,84.24
2022-12-25T02:46:05.998Z,84.35
2022-12-25T02:48:54.527Z,83.97
2022-12-25T02:51:42.935Z,83.09
2022-12-25T02:54:31.704Z,83.82
2022-12-25T02:57:18.421Z,83.64
2022-12-25T03:00:06.339Z,83.72
2022-12-25T03:02:52.260Z,83.41
2022-12-25T03:05:51.061Z,83.21
2022-12-25T03:08:44.300Z,82.67
2022-12-25T03:11:31.196Z,83.76
2022-12-25T03:14:20.803Z,83.05
2022-12-25T03:16:53.798Z,82.44
2022-12-25T03:19:41.900Z,82.82
2022-12-25T03:22:30.916Z,82.46
2022-12-25T03:25:16.537Z,83.07
2022-12-25T03:27:44.737Z,83.19
2022-12-25T03:30:30.614Z,82.53
2022-12-25T03:33:43.192Z,83.24
2022-12-25T03:36:25.776Z,82.68
2022-12-25T03:39:33.056Z,83.23
2022-12-25T03:42:19.933Z,82.89
2022-12-25T03:45:28.019Z,82.83
2022-12-25T03:48:21.812Z,82.50
2022-12-25T03:51:11.811Z,82.92
2022-12-25T03:54:13.030Z,82.95
2022-12-25T03:56:58.243Z,83.62
2022-12-25T03:59:43.780Z,84.12
2022-12-25T04:02:29.751Z,83.45
2022-12-25T04:05:15.225Z,84.05
2022-12-25T04:08:00.771Z,83.69
2022-12-25T04:10:46.304Z,83.80
2022-12-25T04:13:31.732Z,83.38
2022-12-25T04:16:17.337Z,83.38
2022-12-25T04:19:02.837Z,82.60
2022-12-25T04:21:48.231Z,82.58
2022-12-25T04:24:33.526Z,82.96
2022-12-25T04:27:18.870Z,82.81
2022-12-25T04:30:04.202Z,82.77
2022-12-25T04:32:49.905Z,83.09
2022-12-25T04:35:35.189Z,82.84
2022-12-25T04:38:02.019Z,82.54
2022-12-25T04:40:28.841Z,82.94
2022-12-25T04:42:55.608Z,83.54
2022-12-25T04:45:22.385Z,83.74
2022-12-25T04:47:49.276Z,83.44
2022-12-25T04:50:16.072Z,83.58
2022-12-25T04:52:42.965Z,83.28
2022-12-25T04:55:11.320Z,83.81
2022-12-25T04:57:38.324Z,83.75
2022-12-25T05:00:06.563Z,84.68
2022-12-25T05:02:33.555Z,84.74
2022-12-25T05:05:00.471Z,85.12
2022-12-25T05:07:27.408Z,85.19
2022-12-25T05:09:54.175Z,85.75
2022-12-25T05:12:21.173Z,86.33
2022-12-25T05:14:48.014Z,86.57
2022-12-25T05:17:14.887Z,86.86
2022-12-25T05:19:42.862Z,86.44
2022-12-25T05:22:09.754Z,86.44
2022-12-25T05:24:36.492Z,86.98
2022-12-25T05:27:03.627Z,87.18
2022-12-25T05:29:30.385Z,87.24
2022-12-25T05:31:57.212Z,87.24
2022-12-25T05:34:24.023Z,87.08
2022-12-25T05:36:50.899Z,87.32
2022-12-25T05:39:17.650Z,87.35
2022-12-25T05:41:44.462Z,87.44
2022-12-25T05:44:11.268Z,87.15
2022-12-25T05:46:38.102Z,87.33
2022-12-25T05:49:05.835Z,86.91
2022-12-25T05:51:32.907Z,86.72
2022-12-25T05:53:59.800Z,87.01
2022-12-25T05:56:27.061Z,86.86
2022-12-25T05:58:54.295Z,86.76
2022-12-25T06:01:23.916Z,86.74
2022-12-25T06:03:51.059Z,86.64
2022-12-25T06:06:18.179Z,87.28
2022-12-25T06:08:45.148Z,87.17
2022-12-25T06:11:14.060Z,87.20
2022-12-25T06:13:41.111Z,87.37
2022-12-25T06:16:10.352Z,87.03
2022-12-25T06:18:38.614Z,86.38
2022-12-25T06:21:09.851Z,86.43
2022-12-25T06:23:37.903Z,85.83
2022-12-25T06:26:10.473Z,85.95
2022-12-25T06:28:37.363Z,87.09
2022-12-25T06:31:11.324Z,87.23
2022-12-25T06:33:38.413Z,87.35
2022-12-25T06:36:13.981Z,86.83
2022-12-25T06:38:41.765Z,88.03
2022-12-25T06:41:10.914Z,87.74
2022-12-25T06:43:38.090Z,88.43
2022-12-25T06:46:09.927Z,88.26
2022-12-25T06:48:37.806Z,88.72
2022-12-25T06:51:05.873Z,88.39
2022-12-25T06:53:39.746Z,88.88
2022-12-25T06:56:10.314Z,88.45
2022-12-25T06:58:37.105Z,88.18
2022-12-25T07:01:15.235Z,88.64
2022-12-25T07:03:43.940Z,88.23
2022-12-25T07:06:10.784Z,88.25
2022-12-25T07:08:37.545Z,88.00
2022-12-25T07:11:04.712Z,88.06
2022-12-25T07:13:31.552Z,87.99
2022-12-25T07:16:00.046Z,88.31
2022-12-25T07:18:28.043Z,88.69
2022-12-25T07:20:59.519Z,88.38
2022-12-25T07:23:26.967Z,88.61
2022-12-25T07:25:55.105Z,87.81
2022-12-25T07:28:22.009Z,88.21
2022-12-25T07:30:48.805Z,88.11
2022-12-25T07:33:15.985Z,88.19
2022-12-25T07:35:42.830Z,87.50
2022-12-25T07:38:09.803Z,88.30
2022-12-25T07:40:36.794Z,88.34
2022-12-25T07:43:03.608Z,87.87
2022-12-25T07:45:30.411Z,88.45
2022-12-25T07:48:02.755Z,88.99
2022-12-25T07:50:32.137Z,88.44
2022-12-25T07:52:58.940Z,88.38
2022-12-25T07:55:25.743Z,88.84
2022-12-25T07:57:52.922Z,88.90
2022-12-25T08:00:19.997Z,89.48
2022-12-25T08:02:50.169Z,89.48
2022-12-25T08:05:17.442Z,88.38
2022-12-25T08:07:44.423Z,87.25
2022-12-25T08:10:11.525Z,87.97
2022-12-25T08:12:38.244Z,87.72
2022-12-25T08:15:05.588Z,88.23
2022-12-25T08:17:34.987Z,87.19
2022-12-25T08:20:01.811Z,87.01
2022-12-25T08:22:28.700Z,87.31
2022-12-25T08:24:55.506Z,86.99
2022-12-25T08:27:22.296Z,87.34
2022-12-25T08:29:49.111Z,86.15
2022-12-25T08:32:15.848Z,86.25
2022-12-25T08:34:43.825Z,86.79
2022-12-25T08:37:10.652Z,86.67
2022-12-25T08:39:37.519Z,86.54
2022-12-25T08:42:04.449Z,85.99
2022-12-25T08:44:31.364Z,86.22
2022-12-25T08:46:58.118Z,86.90
2022-12-25T08:49:27.449Z,87.26
2022-12-25T08:51:54.608Z,87.08
2022-12-25T08:54:21.509Z,87.26
2022-12-25T08:56:48.275Z,86.88
2022-12-25T08:59:15.133Z,87.52
2022-12-25T09:01:41.940Z,87.64
2022-12-25T09:04:08.790Z,88.25
2022-12-25T09:06:35.528Z,87.71
2022-12-25T09:09:02.357Z,87.66
2022-12-25T09:11:29.171Z,87.73
2022-12-25T09:13:56.009Z,87.18
2022-12-25T09:16:23.200Z,86.87
2022-12-25T09:18:50.625Z,86.67
2022-12-25T09:21:18.061Z,85.79
2022-12-25T09:23:45.093Z,86.35
2022-12-25T09:26:14.306Z,85.87
2022-12-25T09:28:48.432Z,85.64
2022-12-25T09:31:18.038Z,85.57
2022-12-25T09:33:44.863Z,85.35
2022-12-25T09:36:11.731Z,85.22
2022-12-25T09:38:38.745Z,84.98
2022-12-25T09:41:13.018Z,84.89
2022-12-25T09:43:44.226Z,84.60
2022-12-25T09:46:15.706Z,85.14
2022-12-25T09:49:04.663Z,84.96
2022-12-25T09:51:34.147Z,85.44
2022-12-25T09:54:04.958Z,85.60
2022-12-25T09:56:32.694Z,86.40
2022-12-25T09:58:59.468Z,85.81
2022-12-25T10:01:46.372Z,86.01
2022-12-25T10:04:19.411Z,86.69
2022-12-25T10:07:25.623Z,85.97
2022-12-25T10:10:17.895Z,85.20
2022-12-25T10:12:50.672Z,86.47
2022-12-25T10:15:29.891Z,86.36
2022-12-25T10:18:21.336Z,86.34
2022-12-25T10:21:00.290Z,85.80
2022-12-25T10:23:44.430Z,85.43
2022-12-25T10:26:20.334Z,85.31
2022-12-25T10:28:57.977Z,85.50
2022-12-25T10:31:27.586Z,85.80
2022-12-25T10:33:54.929Z,85.81
2022-12-25T10:36:25.077Z,85.67
2022-12-25T10:38:52.600Z,85.39
2022-12-25T10:41:50.281Z,85.37
2022-12-25T10:44:24.295Z,85.95
2022-12-25T10:46:56.310Z,85.97
2022-12-25T10:49:35.549Z,86.03
2022-12-25T10:52:04.057Z,85.71
2022-12-25T10:54:36.070Z,86.18
2022-12-25T10:57:14.622Z,85.99
2022-12-25T10:59:52.467Z,85.56
2022-12-25T11:02:25.440Z,85.49
2022-12-25T11:05:01.604Z,85.40
2022-12-25T11:07:28.977Z,85.55
2022-12-25T11:10:05.337Z,85.54
2022-12-25T11:12:37.907Z,84.84
2022-12-25T11:15:30.832Z,84.68
2022-12-25T11:17:57.766Z,85.10
2022-12-25T11:20:24.713Z,84.75
2022-12-25T11:22:51.809Z,85.13
2022-12-25T11:25:24.299Z,85.30
2022-12-25T11:28:02.984Z,85.18
2022-12-25T11:30:31.564Z,85.00
2022-12-25T11:33:01.694Z,84.64
2022-12-25T11:35:31.921Z,84.58
2022-12-25T11:37:58.915Z,84.47
2022-12-25T11:40:40.608Z,84.28
2022-12-25T11:43:16.016Z,83.61
2022-12-25T11:45:47.868Z,83.75
2022-12-25T11:48:18.453Z,83.52
2022-12-25T11:51:00.641Z,83.41
2022-12-25T11:53:27.453Z,82.70
2022-12-25T11:55:57.285Z,82.39
2022-12-25T11:58:37.932Z,82.46
2022-12-25T12:01:08.533Z,82.44
2022-12-25T12:03:37.975Z,82.68
2022-12-25T12:06:09.107Z,81.20
2022-12-25T12:08:36.615Z,81.02
2022-12-25T12:11:17.828Z,81.31
2022-12-25T12:13:56.151Z,81.03
2022-12-25T12:16:23.608Z,81.68
2022-12-25T12:18:50.982Z,82.34
2022-12-25T12:21:17.865Z,82.81
2022-12-25T12:24:15.795Z,82.29
2022-12-25T12:26:44.695Z,80.85
2022-12-25T12:29:29.236Z,81.76
2022-12-25T12:32:00.770Z,81.49
2022-12-25T12:34:27.607Z,81.44
2022-12-25T12:37:08.086Z,82.32
2022-12-25T12:39:37.599Z,80.35
2022-12-25T12:42:15.916Z,77.93
2022-12-25T12:44:42.989Z,77.33
2022-12-25T12:47:47.818Z,76.84
2022-12-25T12:50:36.849Z,78.51
2022-12-25T12:53:24.137Z,77.57
2022-12-25T12:55:52.058Z,77.02
2022-12-25T12:58:48.631Z,74.18
2022-12-25T13:01:27.843Z,72.22
2022-12-25T13:04:15.059Z,72.84
2022-12-25T13:07:00.416Z,74.62
2022-12-25T13:09:51.796Z,75.78
2022-12-25T13:12:19.641Z,75.26
2022-12-25T13:14:47.347Z,76.08
2022-12-25T13:17:18.473Z,75.99
2022-12-25T13:19:45.741Z,77.64
2022-12-25T13:22:30.252Z,77.15
2022-12-25T13:25:00.508Z,77.75
2022-12-25T13:27:30.412Z,78.88
2022-12-25T13:29:57.942Z,78.49
2022-12-25T13:32:32.872Z,78.68
2022-12-25T13:35:00.405Z,77.29
2022-12-25T13:37:28.893Z,77.30
2022-12-25T13:39:58.267Z,77.35
2022-12-25T13:42:36.618Z,77.94
2022-12-25T13:45:24.547Z,77.97
2022-12-25T13:47:55.609Z,77.44
2022-12-25T13:50:25.962Z,77.15
2022-12-25T13:52:55.710Z,78.14
2022-12-25T13:55:27.698Z,77.29
2022-12-25T13:58:01.580Z,76.84
2022-12-25T14:00:39.125Z,78.29
2022-12-25T14:03:07.727Z,78.85
2022-12-25T14:05:42.275Z,79.19
2022-12-25T14:08:25.565Z,80.76
2022-12-25T14:10:53.231Z,80.69
2022-12-25T14:13:22.549Z,80.93
2022-12-25T14:15:51.146Z,81.45
2022-12-25T14:18:19.754Z,81.30
2022-12-25T14:21:05.121Z,81.29
2022-12-25T14:23:52.241Z,81.27
2022-12-25T14:26:20.244Z,80.67
2022-12-25T14:28:48.992Z,80.50
2022-12-25T14:31:16.763Z,80.73
2022-12-25T14:33:43.699Z,81.07
2022-12-25T14:36:12.279Z,79.64
2022-12-25T14:38:41.647Z,79.78
2022-12-25T14:41:22.630Z,80.64
2022-12-25T14:43:54.517Z,79.61
2022-12-25T14:46:26.925Z,79.39
2022-12-25T14:49:05.361Z,79.00
2022-12-25T14:51:33.428Z,77.33
2022-12-25T14:54:04.397Z,78.00
2022-12-25T14:56:38.054Z,76.29
2022-12-25T14:59:07.738Z,77.00
2022-12-25T15:01:41.775Z,74.34
2022-12-25T15:04:11.530Z,73.55
2022-12-25T15:07:07.502Z,73.03
2022-12-25T15:09:36.196Z,74.86
2022-12-25T15:12:03.202Z,72.84
2022-12-25T15:14:31.783Z,73.97
2022-12-25T15:17:00.861Z,73.23
2022-12-25T15:19:36.973Z,73.66
2022-12-25T15:22:04.860Z,73.23
2022-12-25T15:24:31.808Z,72.84
2022-12-25T15:27:00.442Z,72.03
2022-12-25T15:30:07.372Z,72.59
2022-12-25T15:32:20.127Z,72.95
2022-12-25T15:34:49.945Z,73.10
2022-12-25T15:37:18.046Z,73.21
2022-12-25T15:39:45.212Z,73.73
2022-12-25T15:42:14.674Z,72.31
2022-12-25T15:44:42.059Z,72.85
2022-12-25T15:47:10.483Z,72.35
2022-12-25T15:49:37.265Z,72.66
2022-12-25T15:52:09.843Z,73.43
2022-12-25T15:54:36.903Z,73.97
2022-12-25T15:57:05.872Z,73.48
2022-12-25T15:59:33.397Z,72.07
2022-12-25T16:02:01.355Z,72.26
2022-12-25T16:04:29.155Z,71.70
2022-12-25T16:06:56.687Z,71.55
2022-12-25T16:09:23.604Z,72.16
2022-12-25T16:11:50.368Z,72.06
2022-12-25T16:14:17.241Z,72.39
2022-12-25T16:16:44.033Z,69.85
2022-12-25T16:19:11.027Z,71.39
2022-12-25T16:21:41.894Z,71.89
2022-12-25T16:24:09.345Z,72.18
2022-12-25T16:26:36.218Z,71.72
2022-12-25T16:29:07.202Z,71.34
2022-12-25T16:31:35.224Z,72.97
2022-12-25T16:34:02.180Z,72.90
2022-12-25T16:36:28.944Z,72.67
2022-12-25T16:38:55.791Z,71.20
2022-12-25T16:41:22.693Z,72.10
2022-12-25T16:43:49.513Z,73.34
2022-12-25T16:46:19.776Z,73.86
2022-12-25T16:48:46.746Z,74.68
2022-12-25T16:51:15.663Z,75.03
2022-12-25T16:53:43.597Z,75.69
2022-12-25T16:56:14.773Z,76.03
2022-12-25T16:58:42.605Z,75.68
2022-12-25T17:01:15.648Z,75.88
2022-12-25T17:03:43.130Z,76.04
2022-12-25T17:06:23.156Z,74.32
2022-12-25T17:08:51.981Z,74.76
2022-12-25T17:11:27.252Z,75.95
2022-12-25T17:13:54.537Z,75.22
2022-12-25T17:16:29.629Z,75.79
2022-12-25T17:19:01.513Z,76.57
2022-12-25T17:21:29.356Z,77.40
2022-12-25T17:24:02.101Z,80.02
2022-12-25T17:26:31.206Z,80.63
2022-12-25T17:28:58.631Z,79.73
2022-12-25T17:31:25.535Z,78.96
2022-12-25T17:33:52.436Z,79.42
2022-12-25T17:36:20.534Z,78.92
2022-12-25T17:38:48.161Z,80.81
2022-12-25T17:41:16.697Z,80.91
2022-12-25T17:43:45.671Z,79.69
2022-12-25T17:46:16.504Z,78.19
2022-12-25T17:48:43.469Z,79.53
2022-12-25T17:51:13.230Z,80.54
2022-12-25T17:53:42.894Z,81.74
2022-12-25T17:56:10.869Z,79.45
2022-12-25T17:58:38.455Z,79.64
2022-12-25T18:01:13.598Z,78.75
2022-12-25T18:03:40.828Z,77.97
2022-12-25T18:06:12.443Z,78.73
2022-12-25T18:08:39.983Z,78.05
2022-12-25T18:11:09.199Z,77.92
2022-12-25T18:13:36.199Z,79.22
2022-12-25T18:16:05.750Z,79.43
2022-12-25T18:18:33.316Z,80.37
2022-12-25T18:21:01.882Z,79.93
2022-12-25T18:23:28.828Z,81.11
2022-12-25T18:25:55.786Z,80.41
2022-12-25T18:28:23.426Z,81.66
2022-12-25T18:30:50.147Z,81.53
2022-12-25T18:33:16.967Z,79.49
2022-12-25T18:35:44.403Z,80.58
2022-12-25T18:38:11.790Z,78.47
2022-12-25T18:40:42.293Z,78.84
2022-12-25T18:43:09.433Z,79.65
2022-12-25T18:45:36.596Z,80.47
2022-12-25T18:48:06.172Z,80.95
2022-12-25T18:50:34.018Z,81.55
2022-12-25T18:53:01.489Z,81.82
2022-12-25T18:55:28.411Z,81.68
2022-12-25T18:57:55.616Z,80.31
2022-12-25T19:00:22.845Z,79.55
2022-12-25T19:02:50.018Z,80.66
2022-12-25T19:05:17.444Z,80.33
2022-12-25T19:07:44.389Z,80.00
2022-12-25T19:10:11.189Z,79.75
2022-12-25T19:12:38.194Z,80.88
2022-12-25T19:15:05.632Z,82.22
2022-12-25T19:17:34.241Z,82.98
2022-12-25T19:20:02.416Z,83.76
2022-12-25T19:22:29.408Z,83.33
2022-12-25T19:24:56.284Z,82.13
2022-12-25T19:27:23.096Z,83.51
2022-12-25T19:29:49.883Z,83.84
2022-12-25T19:32:16.772Z,83.52
2022-12-25T19:34:43.620Z,84.92
2022-12-25T19:37:10.506Z,84.38
2022-12-25T19:39:37.846Z,85.67
2022-12-25T19:42:04.620Z,84.22
2022-12-25T19:44:31.462Z,84.69
2022-12-25T19:46:58.352Z,84.98
2022-12-25T19:49:25.821Z,84.35
2022-12-25T19:51:52.589Z,83.23
2022-12-25T19:54:20.756Z,83.65
2022-12-25T19:56:48.640Z,84.54
2022-12-25T19:59:15.943Z,84.18
2022-12-25T20:01:43.747Z,83.24
2022-12-25T20:04:10.901Z,83.47
2022-12-25T20:06:39.558Z,82.65
2022-12-25T20:09:08.932Z,83.63
2022-12-25T20:11:37.001Z,85.49
2022-12-25T20:14:05.576Z,84.09
2022-12-25T20:16:38.809Z,83.70
2022-12-25T20:19:05.850Z,82.08
2022-12-25T20:21:33.236Z,83.89
2022-12-25T20:24:00.216Z,82.74
2022-12-25T20:26:29.730Z,81.54
2022-12-25T20:28:57.259Z,81.64
2022-12-25T20:31:29.031Z,81.40
2022-12-25T20:33:57.758Z,79.64
2022-12-25T20:36:24.698Z,79.95
2022-12-25T20:38:52.786Z,81.88
2022-12-25T20:41:29.495Z,80.59
2022-12-25T20:43:57.192Z,79.53
2022-12-25T20:46:24.915Z,79.47
2022-12-25T20:48:53.069Z,79.26
2022-12-25T20:51:22.498Z,81.09
2022-12-25T20:53:50.399Z,79.69
2022-12-25T20:56:18.907Z,81.35
2022-12-25T20:58:45.779Z,81.81
2022-12-25T21:01:15.370Z,81.09
2022-12-25T21:03:42.994Z,81.66
2022-12-25T21:06:09.897Z,81.90
2022-12-25T21:08:37.255Z,82.68
2022-12-25T21:11:04.694Z,81.74
2022-12-25T21:13:42.979Z,83.20
2022-12-25T21:16:13.579Z,84.56
2022-12-25T21:18:40.891Z,84.71
2022-12-25T21:21:08.205Z,84.83
2022-12-25T21:23:36.790Z,85.22
2022-12-25T21:26:15.766Z,83.52
2022-12-25T21:28:42.769Z,82.76
2022-12-25T21:31:10.333Z,84.31
2022-12-25T21:33:52.371Z,85.82
2022-12-25T21:36:32.612Z,86.28
2022-12-25T21:39:07.473Z,86.93
2022-12-25T21:41:35.572Z,87.06
2022-12-25T21:44:02.339Z,86.15
2022-12-25T21:46:29.944Z,86.84
2022-12-25T21:48:57.355Z,87.51
2022-12-25T21:51:48.021Z,87.93
2022-12-25T21:54:15.654Z,86.78
2022-12-25T21:56:45.144Z,87.59
2022-12-25T21:59:15.208Z,88.18
2022-12-25T22:01:42.844Z,87.13
2022-12-25T22:04:11.273Z,87.37
2022-12-25T22:06:56.645Z,86.23
2022-12-25T22:09:24.053Z,86.18
2022-12-25T22:12:09.080Z,86.20
2022-12-25T22:14:54.918Z,87.22
2022-12-25T22:17:42.911Z,87.68
2022-12-25T22:20:13.103Z,86.76
2022-12-25T22:22:39.982Z,87.76
2022-12-25T22:25:07.122Z,87.38
2022-12-25T22:27:35.917Z,87.83
2022-12-25T22:30:02.988Z,87.59
2022-12-25T22:32:30.263Z,88.08
2022-12-25T22:34:57.245Z,88.10
2022-12-25T22:37:24.503Z,87.81
2022-12-25T22:39:51.258Z,87.73
2022-12-25T22:42:18.145Z,88.14
2022-12-25T22:44:45.776Z,87.75
2022-12-25T22:47:12.700Z,87.92
2022-12-25T22:49:39.679Z,88.01
2022-12-25T22:52:08.240Z,88.18
2022-12-25T22:54:36.130Z,88.87
2022-12-25T22:57:03.045Z,86.61
2022-12-25T22:59:29.891Z,85.55
2022-12-25T23:01:56.771Z,85.60
2022-12-25T23:04:23.966Z,85.35
2022-12-25T23:06:51.234Z,84.89
2022-12-25T23:09:24.888Z,84.89
2022-12-25T23:11:51.974Z,84.70
2022-12-25T23:14:37.300Z,85.13
2022-12-25T23:17:04.345Z,83.88
2022-12-25T23:19:49.675Z,83.09
2022-12-25T23:22:35.025Z,82.53
2022-12-25T23:25:20.709Z,82.03
2022-12-25T23:27:47.675Z,81.90
2022-12-25T23:30:16.346Z,82.21
2022-12-25T23:32:44.068Z,81.98
2022-12-25T23:35:11.865Z,81.95
2022-12-25T23:37:38.702Z,82.40
2022-12-25T23:40:06.163Z,80.88
2022-12-25T23:42:32.902Z,81.33
2022-12-25T23:44:59.660Z,81.75
2022-12-25T23:47:26.558Z,81.40
2022-12-25T23:49:53.337Z,80.73
2022-12-25T23:52:20.285Z,81.87
2022-12-25T23:54:47.091Z,81.44
2022-12-25T23:57:13.833Z,81.84
2022-12-25T23:59:40.677Z,82.82
